Etusivu
METAR-TAF:

METAR-TAF

Lentoasemat :

Pago Pago, Yhdysvaltain pienet erillissaaret

Leveyspiiri: 14-20S, Pituuspiiri: 170-43W, korkeus merenpinnasta: 3 m

Tämänhetkinen sää

Tämä raportti tehtiin 35 minuuttia sitten, kello 11.50 UTC
Tuuli 13 kn idästä/kaakosta
Lämpötila 27°C
Kosteus 84%
Ilmanpaine 1012 hPa
Näkyvyys: 17.7 km
Hajanaisia pilviä 1800 ft:n korkeudessa

METAR: NSTU 201150Z 11013KT 11SM SCT018 27/24 A2988 RMK SLP120 8/100 T02700235 10270 20269 56005

Aika: 01:25 (12:25 UTC)

Sääennuste

Tämä raportti tehtiin 56 minuuttia sitten, kello 11.29 UTC
Ennuste voimassa 20. päivästä klo 12 UTC - 21. päivään klo 12 UTC
Tuuli 6 kn eri suunnista
Näkyvyys: 10 km
Hajanaisia pilviä 1800 ft:n korkeudessa

TAF: NSTU 201129Z 2012/2112 VRB06KT P6SM SCT018

Säähavainnot ja -ennusteet yli 4000 lentoasemalta (METAR- ja TAF-raportit).

Käytössä olevat sääasemat on merkitty karttaan keltaisilla ja punaisilla pisteillä.

Aseta hiiri pisteen päälle nähdäksesi sääaseman nimen.

Klikkaa sitten nähdäksesi säähavainnot ja -ennusteet.

Kartan vaihtaminen: klikkaa mustalla rastilla varustettuja vihreitä pisteitä, niin voit zoomata sisään; viivalla varustettua vihreää pistettä, niin voit zoomata ulos tai vihreitä nuolia, niin pääset viereisille kartoille.


METAR-TAF: